createdAt,value
2017-07-01T00:01:58.896Z,14.50
2017-07-01T00:04:26.358Z,14.50
2017-07-01T00:06:53.836Z,14.50
2017-07-01T00:09:22.079Z,14.50
2017-07-01T00:11:49.574Z,14.40
2017-07-01T00:14:17.814Z,14.50
2017-07-01T00:16:45.267Z,14.50
2017-07-01T00:19:12.830Z,14.60
2017-07-01T00:21:40.267Z,14.60
2017-07-01T00:24:07.727Z,14.60
2017-07-01T00:26:35.296Z,14.60
2017-07-01T00:29:02.739Z,14.60
2017-07-01T00:31:30.203Z,14.60
2017-07-01T00:33:57.666Z,14.60
2017-07-01T00:36:25.122Z,14.60
2017-07-01T00:38:52.574Z,14.60
2017-07-01T00:41:20.074Z,14.60
2017-07-01T00:43:48.312Z,14.60
2017-07-01T00:46:15.761Z,14.60
2017-07-01T00:48:43.224Z,14.70
2017-07-01T00:51:10.687Z,14.70
2017-07-01T00:53:38.122Z,14.70
2017-07-01T00:56:05.565Z,14.80
2017-07-01T00:58:33.050Z,14.70
2017-07-01T01:01:00.494Z,14.70
2017-07-01T01:03:27.935Z,14.70
2017-07-01T01:05:55.414Z,14.70
2017-07-01T01:08:22.875Z,14.70
2017-07-01T01:10:50.347Z,14.70
2017-07-01T01:13:17.812Z,14.70
2017-07-01T01:15:46.063Z,14.80
2017-07-01T01:18:13.612Z,14.70
2017-07-01T01:20:41.047Z,14.80
2017-07-01T01:23:08.577Z,14.80
2017-07-01T01:25:36.090Z,14.70
2017-07-01T01:28:03.539Z,14.70
2017-07-01T01:30:31.050Z,14.60
2017-07-01T01:32:59.259Z,14.60
2017-07-01T01:35:26.734Z,14.60
2017-07-01T01:37:54.195Z,14.60
2017-07-01T01:40:21.642Z,14.70
2017-07-01T01:42:49.098Z,14.60
2017-07-01T01:45:16.574Z,14.60
2017-07-01T01:47:44.016Z,14.60
2017-07-01T01:50:11.467Z,14.60
2017-07-01T01:52:38.926Z,14.60
2017-07-01T01:55:06.387Z,14.60
2017-07-01T01:57:33.827Z,14.60
2017-07-01T02:00:01.347Z,14.60
2017-07-01T02:02:29.543Z,14.60
2017-07-01T02:04:57.001Z,14.60
2017-07-01T02:07:24.447Z,14.70
2017-07-01T02:09:51.958Z,14.70
2017-07-01T02:12:20.941Z,14.70
2017-07-01T02:14:55.355Z,14.70
2017-07-01T02:17:38.781Z,14.60
2017-07-01T02:20:06.223Z,14.60
2017-07-01T02:22:35.224Z,14.60
2017-07-01T02:25:15.549Z,14.70
2017-07-01T02:27:43.051Z,14.70
2017-07-01T02:30:10.510Z,14.60
2017-07-01T02:32:59.415Z,14.50
2017-07-01T02:35:26.879Z,14.50
2017-07-01T02:37:54.402Z,14.60
2017-07-01T02:40:21.952Z,14.60
2017-07-01T02:42:49.443Z,14.60
2017-07-01T02:45:26.470Z,14.60
2017-07-01T02:48:03.858Z,14.60
2017-07-01T02:50:37.006Z,14.60
2017-07-01T02:53:13.111Z,14.60
2017-07-01T02:56:06.006Z,14.60
2017-07-01T02:58:35.270Z,14.60
2017-07-01T03:01:02.840Z,14.60
2017-07-01T03:03:30.295Z,14.70
2017-07-01T03:05:57.837Z,14.70
2017-07-01T03:08:25.292Z,14.70
2017-07-01T03:10:52.843Z,14.80
2017-07-01T03:13:20.278Z,14.70
2017-07-01T03:15:47.738Z,14.80
2017-07-01T03:18:15.175Z,14.70
2017-07-01T03:20:42.646Z,14.60
2017-07-01T03:23:10.099Z,14.60
2017-07-01T03:25:37.558Z,14.60
2017-07-01T03:28:05.050Z,14.70
2017-07-01T03:30:32.602Z,14.70
2017-07-01T03:33:00.075Z,14.70
2017-07-01T03:35:27.502Z,14.70
2017-07-01T03:38:21.663Z,14.70
2017-07-01T03:41:04.997Z,14.70
2017-07-01T03:43:35.366Z,14.60
2017-07-01T03:46:03.746Z,14.60
2017-07-01T03:48:58.831Z,14.60
2017-07-01T03:51:26.280Z,14.60
2017-07-01T03:53:53.715Z,14.60
2017-07-01T03:56:21.156Z,14.60
2017-07-01T03:58:48.660Z,14.60
2017-07-01T04:01:16.094Z,14.60
2017-07-01T04:03:43.582Z,14.60
2017-07-01T04:06:11.120Z,14.60
2017-07-01T04:08:38.606Z,14.60
2017-07-01T04:11:06.135Z,14.60
2017-07-01T04:13:33.590Z,14.70
2017-07-01T04:16:01.027Z,14.60
2017-07-01T04:18:33.012Z,14.70
2017-07-01T04:21:00.570Z,14.70
2017-07-01T04:23:28.029Z,14.70
2017-07-01T04:25:55.491Z,14.70
2017-07-01T04:28:22.923Z,14.70
2017-07-01T04:30:50.400Z,14.70
2017-07-01T04:33:17.906Z,14.70
2017-07-01T04:35:45.350Z,14.70
2017-07-01T04:38:19.227Z,14.70
2017-07-01T04:40:49.683Z,14.70
2017-07-01T04:43:24.471Z,14.80
2017-07-01T04:45:55.515Z,14.80
2017-07-01T04:48:23.071Z,14.80
2017-07-01T04:51:02.614Z,14.80
2017-07-01T04:56:44.352Z,14.80
2017-07-01T04:59:11.876Z,14.80
2017-07-01T05:01:47.935Z,14.80
2017-07-01T05:04:20.027Z,14.80
2017-07-01T05:06:49.002Z,14.70
2017-07-01T05:09:27.287Z,14.70
2017-07-01T05:11:54.726Z,14.80
2017-07-01T05:14:23.094Z,14.80
2017-07-01T05:16:52.119Z,14.80
2017-07-01T05:19:28.387Z,14.80
2017-07-01T05:21:55.857Z,14.90
2017-07-01T05:24:29.387Z,14.90
2017-07-01T05:26:57.610Z,14.90
2017-07-01T05:29:25.137Z,14.80
2017-07-01T05:31:52.596Z,14.90
2017-07-01T05:34:24.839Z,15.00
2017-07-01T05:36:53.078Z,15.00
2017-07-01T05:39:23.495Z,14.90
2017-07-01T05:44:54.966Z,15.10
2017-07-01T05:47:24.190Z,15.10
2017-07-01T05:49:51.734Z,15.10
2017-07-01T05:52:19.204Z,15.10
2017-07-01T05:54:46.739Z,15.20
2017-07-01T05:57:14.193Z,15.30
2017-07-01T05:59:49.285Z,15.30
2017-07-01T06:02:20.820Z,15.20
2017-07-01T06:04:49.054Z,15.40
2017-07-01T06:07:16.490Z,15.30
2017-07-01T06:10:08.747Z,15.40
2017-07-01T06:12:51.166Z,15.50
2017-07-01T06:15:39.358Z,15.60
2017-07-01T06:18:06.935Z,15.60
2017-07-01T06:20:35.251Z,15.70
2017-07-01T06:23:15.395Z,15.60
2017-07-01T06:25:48.243Z,15.60
2017-07-01T06:28:23.362Z,15.60
2017-07-01T06:31:17.430Z,15.60
2017-07-01T06:33:45.618Z,15.60
2017-07-01T06:36:17.678Z,15.60
2017-07-01T06:39:03.502Z,15.50
2017-07-01T06:41:44.802Z,15.50
2017-07-01T06:44:12.266Z,15.50
2017-07-01T06:46:58.335Z,15.50
2017-07-01T06:49:25.794Z,15.50
2017-07-01T06:51:59.399Z,15.50
2017-07-01T06:54:26.855Z,15.50
2017-07-01T06:56:54.298Z,15.60
2017-07-01T06:59:31.639Z,15.60
2017-07-01T07:01:59.990Z,15.70
2017-07-01T07:04:27.538Z,15.60
2017-07-01T07:06:54.974Z,15.70
2017-07-01T07:09:22.432Z,15.70
2017-07-01T07:11:49.886Z,15.70
2017-07-01T07:14:17.347Z,15.70
2017-07-01T07:16:44.811Z,15.70
2017-07-01T07:19:12.286Z,15.70
2017-07-01T07:21:39.737Z,15.70
2017-07-01T07:24:07.166Z,15.70
2017-07-01T07:26:34.607Z,15.70
2017-07-01T07:29:02.055Z,15.60
2017-07-01T07:31:29.490Z,15.60
2017-07-01T07:33:57.918Z,15.60
2017-07-01T07:36:25.367Z,15.60
2017-07-01T07:38:52.857Z,15.70
2017-07-01T07:41:20.418Z,15.70
2017-07-01T07:43:47.851Z,15.80
2017-07-01T07:46:15.293Z,15.80
2017-07-01T07:48:42.780Z,15.90
2017-07-01T07:51:10.215Z,15.90
2017-07-01T07:53:37.678Z,15.90
2017-07-01T07:56:05.269Z,15.90
2017-07-01T07:58:33.470Z,15.90
2017-07-01T08:01:00.954Z,15.90
2017-07-01T08:03:28.415Z,15.90
2017-07-01T08:05:55.882Z,15.90
2017-07-01T08:08:23.362Z,15.90
2017-07-01T08:10:50.947Z,15.90
2017-07-01T08:13:19.178Z,15.90
2017-07-01T08:15:46.707Z,15.80
2017-07-01T08:18:14.139Z,15.90
2017-07-01T08:20:41.703Z,15.90
2017-07-01T08:23:09.198Z,16.00
2017-07-01T08:25:36.665Z,16.00
2017-07-01T08:28:04.101Z,15.90
2017-07-01T08:30:31.599Z,15.90
2017-07-01T08:32:59.126Z,15.80
2017-07-01T08:35:26.686Z,15.80
2017-07-01T08:37:54.264Z,15.90
2017-07-01T08:40:21.810Z,16.00
2017-07-01T08:42:49.299Z,16.00
2017-07-01T08:45:17.531Z,16.00
2017-07-01T08:47:45.028Z,16.00
2017-07-01T08:50:12.585Z,16.10
2017-07-01T08:52:40.813Z,16.00
2017-07-01T08:55:08.254Z,16.00
2017-07-01T08:57:35.741Z,16.10
2017-07-01T09:00:03.306Z,16.10
2017-07-01T09:02:30.756Z,16.20
2017-07-01T09:04:58.314Z,16.30
2017-07-01T09:07:25.755Z,16.30
2017-07-01T09:09:53.250Z,16.30
2017-07-01T09:12:20.894Z,16.30
2017-07-01T09:14:48.364Z,16.30
2017-07-01T09:17:15.802Z,16.30
2017-07-01T09:19:43.367Z,16.40
2017-07-01T09:22:10.810Z,16.50
2017-07-01T09:24:38.335Z,16.60
2017-07-01T09:27:05.917Z,16.70
2017-07-01T09:29:33.372Z,16.70
2017-07-01T09:32:00.856Z,16.70
2017-07-01T09:34:28.295Z,16.70
2017-07-01T09:36:55.753Z,16.60
2017-07-01T09:39:23.217Z,16.50
2017-07-01T09:41:50.746Z,16.60
2017-07-01T09:44:18.226Z,16.60
2017-07-01T09:46:46.519Z,16.70
2017-07-01T09:49:13.959Z,16.80
2017-07-01T09:51:41.437Z,16.70
2017-07-01T09:54:08.983Z,16.70
2017-07-01T09:56:36.511Z,16.60
2017-07-01T09:59:03.979Z,16.70
2017-07-01T10:01:31.447Z,16.70
2017-07-01T10:03:58.886Z,16.70
2017-07-01T10:06:26.388Z,16.80
2017-07-01T10:08:54.586Z,16.90
2017-07-01T10:11:22.027Z,16.90
2017-07-01T10:13:50.258Z,16.80
2017-07-01T10:16:17.709Z,16.70
2017-07-01T10:18:45.134Z,16.70
2017-07-01T10:21:12.655Z,16.70
2017-07-01T10:23:40.899Z,16.60
2017-07-01T10:26:08.339Z,16.60
2017-07-01T10:28:35.798Z,16.60
2017-07-01T10:31:03.258Z,16.50
2017-07-01T10:33:30.719Z,16.50
2017-07-01T10:35:58.169Z,16.50
2017-07-01T10:38:25.635Z,16.40
2017-07-01T10:40:53.075Z,16.40
2017-07-01T10:43:20.552Z,16.60
2017-07-01T10:45:48.084Z,16.50
2017-07-01T10:48:15.519Z,16.60
2017-07-01T10:50:42.974Z,16.70
2017-07-01T10:53:11.175Z,16.60
2017-07-01T10:55:38.662Z,16.50
2017-07-01T10:58:06.102Z,16.70
2017-07-01T11:00:33.538Z,16.70
2017-07-01T11:03:00.999Z,16.90
2017-07-01T11:05:28.449Z,16.80
2017-07-01T11:07:55.887Z,16.60
2017-07-01T11:10:23.354Z,16.40
2017-07-01T11:12:50.823Z,16.40
2017-07-01T11:15:18.377Z,16.30
2017-07-01T11:17:45.846Z,16.40
2017-07-01T11:20:13.315Z,16.60
2017-07-01T11:22:40.775Z,16.60
2017-07-01T11:25:08.199Z,16.70
2017-07-01T11:27:35.644Z,16.70
2017-07-01T11:30:03.087Z,16.60
2017-07-01T11:32:30.587Z,16.50
2017-07-01T11:34:58.021Z,16.50
2017-07-01T11:37:25.477Z,16.60
2017-07-01T11:39:52.914Z,16.60
2017-07-01T11:42:20.385Z,16.60
2017-07-01T11:44:47.847Z,16.70
2017-07-01T11:47:15.299Z,16.70
2017-07-01T11:49:42.820Z,16.80
2017-07-01T11:52:10.273Z,16.80
2017-07-01T11:54:38.515Z,17.10
2017-07-01T11:57:05.950Z,17.00
2017-07-01T11:59:33.443Z,17.20
2017-07-01T12:02:00.874Z,17.10
2017-07-01T12:04:28.304Z,17.20
2017-07-01T12:06:55.812Z,17.20
2017-07-01T12:09:23.365Z,17.20
2017-07-01T12:11:50.811Z,17.20
2017-07-01T12:14:18.272Z,17.10
2017-07-01T12:16:45.753Z,17.00
2017-07-01T12:19:13.190Z,17.00
2017-07-01T12:21:40.631Z,16.90
2017-07-01T12:24:08.086Z,17.00
2017-07-01T12:26:35.558Z,17.10
2017-07-01T12:29:03.130Z,17.00
2017-07-01T12:31:30.632Z,17.00
2017-07-01T12:33:58.067Z,16.80
2017-07-01T12:36:26.264Z,16.80
2017-07-01T12:38:53.858Z,16.80
2017-07-01T12:41:21.315Z,16.90
2017-07-01T12:43:48.771Z,16.90
2017-07-01T12:46:16.226Z,17.00
2017-07-01T12:48:43.714Z,17.10
2017-07-01T12:51:11.239Z,17.10
2017-07-01T12:53:38.713Z,17.20
2017-07-01T12:56:06.167Z,17.20
2017-07-01T12:58:33.698Z,17.20
2017-07-01T13:01:01.265Z,17.20
2017-07-01T13:03:28.708Z,17.30
2017-07-01T13:05:56.162Z,17.20
2017-07-01T13:08:23.654Z,17.30
2017-07-01T13:10:51.203Z,17.50
2017-07-01T13:13:18.651Z,17.70
2017-07-01T13:15:46.122Z,17.80
2017-07-01T13:18:13.571Z,17.90
2017-07-01T13:20:41.010Z,17.80
2017-07-01T13:23:08.502Z,17.90
2017-07-01T13:25:35.967Z,17.90
2017-07-01T13:28:04.215Z,17.70
2017-07-01T13:30:31.779Z,17.60
2017-07-01T13:32:59.247Z,17.80
2017-07-01T13:35:26.684Z,17.80
2017-07-01T13:37:54.198Z,17.80
2017-07-01T13:40:21.715Z,17.90
2017-07-01T13:42:50.088Z,17.80
2017-07-01T13:45:17.606Z,17.70
2017-07-01T13:47:45.032Z,17.60
2017-07-01T13:50:12.501Z,17.60
2017-07-01T13:52:40.026Z,17.60
2017-07-01T13:55:07.459Z,17.60
2017-07-01T13:57:34.894Z,17.50
2017-07-01T14:00:02.355Z,17.60
2017-07-01T14:02:29.908Z,17.50
2017-07-01T14:04:57.399Z,17.60
2017-07-01T14:07:24.835Z,17.50
2017-07-01T14:09:52.303Z,17.60
2017-07-01T14:12:19.762Z,17.60
2017-07-01T14:14:47.222Z,17.70
2017-07-01T14:17:14.710Z,17.80
2017-07-01T14:19:42.930Z,17.70
2017-07-01T14:22:10.408Z,17.70
2017-07-01T14:24:38.094Z,17.80
2017-07-01T14:27:06.362Z,18.10
2017-07-01T14:29:34.728Z,18.10
2017-07-01T14:32:02.194Z,18.00
2017-07-01T14:34:29.706Z,18.10
2017-07-01T14:36:57.123Z,18.00
2017-07-01T14:39:25.333Z,18.00
2017-07-01T14:41:52.766Z,17.90
2017-07-01T14:44:20.279Z,18.00
2017-07-01T14:46:47.723Z,18.10
2017-07-01T14:49:15.203Z,18.10
2017-07-01T14:51:42.670Z,18.20
2017-07-01T14:54:10.948Z,18.50
2017-07-01T14:56:38.507Z,18.50
2017-07-01T14:59:06.741Z,18.90
2017-07-01T15:01:34.214Z,18.90
2017-07-01T15:04:01.666Z,19.20
2017-07-01T15:06:29.139Z,19.40
2017-07-01T15:08:56.583Z,19.50
2017-07-01T15:11:24.021Z,19.50
2017-07-01T15:13:51.492Z,19.40
2017-07-01T15:16:18.950Z,19.30
2017-07-01T15:18:46.533Z,19.30
2017-07-01T15:21:13.998Z,19.50
2017-07-01T15:23:42.241Z,19.90
2017-07-01T15:26:09.714Z,19.80
2017-07-01T15:28:37.250Z,20.00
2017-07-01T15:31:04.725Z,19.80
2017-07-01T15:33:32.171Z,19.80
2017-07-01T15:35:59.730Z,19.70
2017-07-01T15:38:27.287Z,19.90
2017-07-01T15:40:54.850Z,19.90
2017-07-01T15:43:22.330Z,20.00
2017-07-01T15:45:50.587Z,20.30
2017-07-01T15:48:18.003Z,20.30
2017-07-01T15:50:45.468Z,20.40
2017-07-01T15:53:12.909Z,20.20
2017-07-01T15:55:40.373Z,20.20
2017-07-01T15:58:07.823Z,20.20
2017-07-01T16:00:47.170Z,20.00
2017-07-01T16:03:14.625Z,19.80
2017-07-01T16:05:42.079Z,19.50
2017-07-01T16:08:09.550Z,19.50
2017-07-01T16:10:37.019Z,19.60
2017-07-01T16:13:04.574Z,19.40
2017-07-01T16:15:32.038Z,19.50
2017-07-01T16:17:59.605Z,19.40
2017-07-01T16:20:27.071Z,19.30
2017-07-01T16:22:55.301Z,19.60
2017-07-01T16:25:22.762Z,19.50
2017-07-01T16:27:50.239Z,19.70
2017-07-01T16:30:17.700Z,19.80
2017-07-01T16:32:45.232Z,19.70
2017-07-01T16:35:12.727Z,19.70
2017-07-01T16:37:40.980Z,19.70
2017-07-01T16:40:08.468Z,19.70
2017-07-01T16:42:36.779Z,20.10
2017-07-01T16:45:04.284Z,20.00
2017-07-01T16:47:32.568Z,20.70
2017-07-01T16:50:00.120Z,20.60
2017-07-01T16:52:27.547Z,21.00
2017-07-01T16:54:55.799Z,21.40
2017-07-01T16:57:23.869Z,21.70
2017-07-01T16:59:52.042Z,21.90
2017-07-01T17:02:19.808Z,21.60
2017-07-01T17:04:48.696Z,21.30
2017-07-01T17:07:16.560Z,21.30
2017-07-01T17:09:44.544Z,21.40
2017-07-01T17:12:12.804Z,21.40
2017-07-01T17:14:41.079Z,21.20
2017-07-01T17:17:08.591Z,21.20
2017-07-01T17:19:36.834Z,20.90
2017-07-01T17:22:04.320Z,20.90
2017-07-01T17:24:31.789Z,20.80
2017-07-01T17:26:59.999Z,20.40
2017-07-01T17:29:27.522Z,20.40
2017-07-01T17:31:55.790Z,20.40
2017-07-01T17:34:24.051Z,20.40
2017-07-01T17:36:51.491Z,20.40
2017-07-01T17:39:18.955Z,20.30
2017-07-01T17:41:46.398Z,20.40
2017-07-01T17:44:13.871Z,20.40
2017-07-01T17:46:41.310Z,20.70
2017-07-01T17:49:08.803Z,21.20
2017-07-01T17:51:37.098Z,22.20
2017-07-01T17:54:04.648Z,22.10
2017-07-01T17:56:32.979Z,22.00
2017-07-01T17:59:00.461Z,22.00
2017-07-01T18:01:27.905Z,21.70
2017-07-01T18:03:55.360Z,21.30
2017-07-01T18:06:22.823Z,21.30
2017-07-01T18:08:50.285Z,21.40
2017-07-01T18:11:18.532Z,21.20
2017-07-01T18:13:46.103Z,21.20
2017-07-01T18:16:14.361Z,21.10
2017-07-01T18:18:41.887Z,21.00
2017-07-01T18:21:09.335Z,21.10
2017-07-01T18:23:36.803Z,21.10
2017-07-01T18:26:04.242Z,21.20
2017-07-01T18:28:31.749Z,21.10
2017-07-01T18:30:59.315Z,20.90
2017-07-01T18:33:26.758Z,20.70
2017-07-01T18:35:54.270Z,20.50
2017-07-01T18:38:21.777Z,20.30
2017-07-01T18:40:49.234Z,20.00
2017-07-01T18:43:16.691Z,19.90
2017-07-01T18:45:44.184Z,19.80
2017-07-01T18:48:11.637Z,19.70
2017-07-01T18:50:39.095Z,19.70
2017-07-01T18:53:07.322Z,19.70
2017-07-01T18:55:34.800Z,19.60
2017-07-01T18:58:02.342Z,19.50
2017-07-01T19:00:29.827Z,19.50
2017-07-01T19:02:58.036Z,19.40
2017-07-01T19:05:25.519Z,19.40
2017-07-01T19:07:52.974Z,19.30
2017-07-01T19:10:20.436Z,19.20
2017-07-01T19:12:47.964Z,19.10
2017-07-01T19:15:15.536Z,19.00
2017-07-01T19:17:43.081Z,18.90
2017-07-01T19:20:10.508Z,18.70
2017-07-01T19:22:38.028Z,18.70
2017-07-01T19:25:05.522Z,18.50
2017-07-01T19:27:33.769Z,18.30
2017-07-01T19:30:01.326Z,18.20
2017-07-01T19:32:28.792Z,18.10
2017-07-01T19:34:56.263Z,18.00
2017-07-01T19:37:23.722Z,18.00
2017-07-01T19:39:51.179Z,17.90
2017-07-01T19:42:19.480Z,17.70
2017-07-01T19:44:46.921Z,17.60
2017-07-01T19:47:14.391Z,17.60
2017-07-01T19:49:41.853Z,17.40
2017-07-01T19:52:09.290Z,17.40
2017-07-01T19:54:36.740Z,17.30
2017-07-01T19:57:04.259Z,17.20
2017-07-01T19:59:32.490Z,17.00
2017-07-01T20:01:59.964Z,17.00
2017-07-01T20:04:27.422Z,16.90
2017-07-01T20:06:54.876Z,16.90
2017-07-01T20:09:22.319Z,16.70
2017-07-01T20:11:49.784Z,16.70
2017-07-01T20:14:17.250Z,16.60
2017-07-01T20:16:44.713Z,16.60
2017-07-01T20:19:12.223Z,16.50
2017-07-01T20:21:39.707Z,16.40
2017-07-01T20:24:07.186Z,16.40
2017-07-01T20:26:34.719Z,16.30
2017-07-01T20:29:02.176Z,16.20
2017-07-01T20:31:29.642Z,16.20
2017-07-01T20:33:57.115Z,16.20
2017-07-01T20:36:24.674Z,16.10
2017-07-01T20:38:52.935Z,16.00
2017-07-01T20:41:20.428Z,15.90
2017-07-01T20:43:48.706Z,15.90
2017-07-01T20:46:16.911Z,15.90
2017-07-01T20:48:44.427Z,15.80
2017-07-01T20:51:12.678Z,15.80
2017-07-01T20:53:40.297Z,15.80
2017-07-01T20:56:07.763Z,15.80
2017-07-01T20:58:35.243Z,15.80
2017-07-01T21:01:02.722Z,15.80
2017-07-01T21:03:30.182Z,15.80
2017-07-01T21:05:58.493Z,15.80
2017-07-01T21:08:26.025Z,15.70
2017-07-01T21:10:54.278Z,15.80
2017-07-01T21:13:22.511Z,15.80
2017-07-01T21:15:49.985Z,15.70
2017-07-01T21:18:17.483Z,15.70
2017-07-01T21:20:45.691Z,15.70
2017-07-01T21:23:13.172Z,15.70
2017-07-01T21:25:40.632Z,15.70
2017-07-01T21:28:08.170Z,15.70
2017-07-01T21:33:14.067Z,15.60
2017-07-01T21:35:41.627Z,15.50
2017-07-01T21:38:09.197Z,15.50
2017-07-01T21:40:36.738Z,15.50
2017-07-01T21:43:04.199Z,15.50
2017-07-01T21:45:32.137Z,15.40
2017-07-01T21:48:00.434Z,15.40
2017-07-01T21:50:28.035Z,15.30
2017-07-01T21:52:56.303Z,15.40
2017-07-01T21:55:24.530Z,15.40
2017-07-01T21:57:51.991Z,15.30
2017-07-01T22:00:19.490Z,15.30
2017-07-01T22:02:47.710Z,15.20
2017-07-01T22:05:15.205Z,15.20
2017-07-01T22:07:42.834Z,15.20
2017-07-01T22:10:10.424Z,15.20
2017-07-01T22:12:37.993Z,15.20
2017-07-01T22:15:05.543Z,15.20
2017-07-01T22:17:33.146Z,15.20
2017-07-01T22:20:00.796Z,15.20
2017-07-01T22:22:28.315Z,15.10
2017-07-01T22:24:55.785Z,15.10
2017-07-01T22:27:23.250Z,15.00
2017-07-01T22:29:51.517Z,15.00
2017-07-01T22:32:18.986Z,14.90
2017-07-01T22:34:47.226Z,15.00
2017-07-01T22:37:14.814Z,14.90
2017-07-01T22:39:43.063Z,14.90
2017-07-01T22:42:10.515Z,14.80
2017-07-01T22:44:37.964Z,14.90
2017-07-01T22:47:05.410Z,14.90
2017-07-01T22:49:32.889Z,14.80
2017-07-01T22:52:00.322Z,14.80
2017-07-01T22:54:27.926Z,14.80
2017-07-01T22:56:56.183Z,14.80
2017-07-01T22:59:23.627Z,14.70
2017-07-01T23:01:51.096Z,14.80
2017-07-01T23:04:18.518Z,14.80
2017-07-01T23:06:45.962Z,14.70
2017-07-01T23:09:13.438Z,14.70
2017-07-01T23:11:40.862Z,14.80
2017-07-01T23:14:08.388Z,14.90
2017-07-01T23:16:35.832Z,15.10
2017-07-01T23:19:03.279Z,14.90
2017-07-01T23:21:30.710Z,14.90
2017-07-01T23:23:58.525Z,14.80
2017-07-01T23:26:25.961Z,14.80
2017-07-01T23:28:53.514Z,14.80
2017-07-01T23:31:20.958Z,14.80
2017-07-01T23:33:48.399Z,14.80
2017-07-01T23:36:15.918Z,14.80
2017-07-01T23:38:44.122Z,14.80
2017-07-01T23:41:11.688Z,14.70
2017-07-01T23:43:39.119Z,14.80
2017-07-01T23:46:06.559Z,14.80
2017-07-01T23:48:34.782Z,14.90
2017-07-01T23:51:02.240Z,14.80
2017-07-01T23:53:29.733Z,14.90
2017-07-01T23:55:57.271Z,14.90
2017-07-01T23:58:24.719Z,14.90
